PWSweather.com
Personal Weather Stations
Station Observations

MakarauRodneyNZ

Lat: -36.52421, Lon: 174.47572

Elevation: 606

Station Type: Davis VP2

http://kaiparaweather.dynu.net/index.php

High Low Average
Temperature 79.4°F26.3°C 59.2°F15.1°C 66.4°F19.1°C
Dew Point 65.4°F18.6°C 57.6°F14.2°C 60.4°F15.8°C
Winds 5.8 mph 9.3 kmh Calm Calm 1.0 mph NE1.6 kmh NE
Wind Gusts 11.5 mph18.5 kmh -- 2.0 mph3.2 kmh
Humidity 95% 59% 82%
Pressure 30.13 in1020.3 mb 30.06 in1017.9 mb -
Precipitation 0.01 in0.3 mm - -
Hour Temp Dew Point Humidity Winds Wind Gusts Pressure Precip Precip Rate Daily Precip Total
12:00 AM 61.1°F16.2°C 59.1°F15.1°C 93% Calm Calm -- 30.13 in1020.3 mb - 0.00 in0.0 mm 0.00 in0.0 mm
12:10 AM 61.0°F16.1°C 59.0°F15.0°C 93% Calm Calm -- 30.13 in1020.3 mb - 0.00 in0.0 mm 0.00 in0.0 mm
12:20 AM 61.1°F16.2°C 59.1°F15.1°C 93% Calm Calm -- 30.12 in1020.0 mb - 0.00 in0.0 mm 0.00 in0.0 mm
12:30 AM 61.0°F16.1°C 59.0°F15.0°C 93% Calm Calm -- 30.12 in1020.0 mb - 0.00 in0.0 mm 0.00 in0.0 mm
12:40 AM 60.7°F15.9°C 58.7°F14.8°C 93% Calm Calm -- 30.12 in1020.0 mb - 0.00 in0.0 mm 0.00 in0.0 mm
12:50 AM 60.6°F15.9°C 58.9°F14.9°C 94% Calm Calm -- 30.11 in1019.6 mb - 0.00 in0.0 mm 0.00 in0.0 mm
01:00 AM 60.3°F15.7°C 58.3°F14.6°C 93% Calm Calm -- 30.12 in1020.0 mb - 0.00 in0.0 mm 0.00 in0.0 mm
01:10 AM 60.2°F15.7°C 58.5°F14.7°C 94% Calm Calm -- 30.12 in1020.0 mb - 0.00 in0.0 mm 0.00 in0.0 mm
01:20 AM 60.2°F15.7°C 58.5°F14.7°C 94% Calm Calm -- 30.12 in1020.0 mb - 0.00 in0.0 mm 0.00 in0.0 mm
01:30 AM 60.0°F15.6°C 58.3°F14.6°C 94% Calm Calm -- 30.12 in1020.0 mb - 0.00 in0.0 mm 0.00 in0.0 mm
01:40 AM 59.9°F15.5°C 58.2°F14.6°C 94% Calm Calm -- 30.11 in1019.6 mb - 0.00 in0.0 mm 0.00 in0.0 mm
01:50 AM 59.8°F15.4°C 58.1°F14.5°C 94% Calm Calm -- 30.12 in1020.0 mb - 0.00 in0.0 mm 0.00 in0.0 mm
02:00 AM 59.7°F15.4°C 58.0°F14.4°C 94% Calm Calm 1.2 mph1.9 kmh 30.11 in1019.6 mb - 0.00 in0.0 mm 0.00 in0.0 mm
02:10 AM 59.6°F15.3°C 57.9°F14.4°C 94% 1.2 mph NNE1.9 kmh NNE 3.5 mph5.6 kmh 30.11 in1019.6 mb - 0.00 in0.0 mm 0.00 in0.0 mm
02:20 AM 59.6°F15.3°C 58.2°F14.6°C 95% 1.2 mph NNE1.9 kmh NNE 3.5 mph5.6 kmh 30.11 in1019.6 mb - 0.00 in0.0 mm 0.00 in0.0 mm
02:30 AM 59.6°F15.3°C 57.9°F14.4°C 94% Calm Calm -- 30.11 in1019.6 mb - 0.00 in0.0 mm 0.00 in0.0 mm
02:40 AM 59.6°F15.3°C 58.2°F14.6°C 95% Calm Calm -- 30.11 in1019.6 mb - 0.00 in0.0 mm 0.00 in0.0 mm
02:50 AM 59.8°F15.4°C 58.4°F14.7°C 95% Calm Calm -- 30.11 in1019.6 mb - 0.00 in0.0 mm 0.00 in0.0 mm
03:00 AM 59.7°F15.4°C 58.0°F14.4°C 94% Calm Calm -- 30.10 in1019.3 mb - 0.00 in0.0 mm 0.00 in0.0 mm
03:10 AM 59.7°F15.4°C 58.0°F14.4°C 94% Calm Calm -- 30.11 in1019.6 mb - 0.00 in0.0 mm 0.00 in0.0 mm
03:20 AM 59.7°F15.4°C 58.0°F14.4°C 94% Calm Calm -- 30.11 in1019.6 mb - 0.00 in0.0 mm 0.00 in0.0 mm
03:30 AM 59.5°F15.3°C 57.8°F14.3°C 94% Calm Calm -- 30.11 in1019.6 mb - 0.00 in0.0 mm 0.00 in0.0 mm
03:40 AM 59.4°F15.2°C 57.7°F14.3°C 94% Calm Calm -- 30.11 in1019.6 mb - 0.00 in0.0 mm 0.00 in0.0 mm
03:50 AM 59.7°F15.4°C 58.3°F14.6°C 95% Calm Calm -- 30.11 in1019.6 mb - 0.00 in0.0 mm 0.00 in0.0 mm
04:00 AM 60.0°F15.6°C 58.6°F14.8°C 95% Calm Calm -- 30.11 in1019.6 mb - 0.00 in0.0 mm 0.00 in0.0 mm
04:10 AM 60.1°F15.6°C 58.4°F14.7°C 94% Calm Calm -- 30.11 in1019.6 mb - 0.00 in0.0 mm 0.00 in0.0 mm
04:20 AM 59.9°F15.5°C 58.2°F14.6°C 94% Calm Calm -- 30.11 in1019.6 mb - 0.00 in0.0 mm 0.00 in0.0 mm
04:30 AM 59.8°F15.4°C 58.1°F14.5°C 94% Calm Calm -- 30.11 in1019.6 mb - 0.00 in0.0 mm 0.00 in0.0 mm
04:40 AM 59.8°F15.4°C 58.0°F14.4°C 94% Calm Calm -- 30.11 in1019.6 mb - 0.00 in0.0 mm 0.00 in0.0 mm
04:50 AM 59.5°F15.3°C 57.8°F14.3°C 94% Calm Calm -- 30.11 in1019.6 mb - 0.00 in0.0 mm 0.00 in0.0 mm
05:00 AM 59.8°F15.4°C 58.1°F14.5°C 94% Calm Calm -- 30.11 in1019.6 mb - 0.00 in0.0 mm 0.00 in0.0 mm
05:10 AM 60.1°F15.6°C 58.4°F14.7°C 94% Calm Calm -- 30.11 in1019.6 mb - 0.00 in0.0 mm 0.00 in0.0 mm
05:20 AM 59.9°F15.5°C 58.2°F14.6°C 94% Calm Calm -- 30.11 in1019.6 mb - 0.00 in0.0 mm 0.00 in0.0 mm
05:30 AM 59.8°F15.4°C 58.1°F14.5°C 94% Calm Calm -- 30.11 in1019.6 mb - 0.00 in0.0 mm 0.00 in0.0 mm
05:40 AM 59.6°F15.3°C 57.9°F14.4°C 94% Calm Calm -- 30.11 in1019.6 mb - 0.00 in0.0 mm 0.00 in0.0 mm
05:50 AM 59.4°F15.2°C 57.7°F14.3°C 94% Calm Calm -- 30.11 in1019.6 mb - 0.00 in0.0 mm 0.00 in0.0 mm
06:00 AM 59.4°F15.2°C 57.7°F14.3°C 94% Calm Calm -- 30.11 in1019.6 mb - 0.00 in0.0 mm 0.00 in0.0 mm
06:10 AM 59.5°F15.3°C 58.1°F14.5°C 95% Calm Calm -- 30.11 in1019.6 mb - 0.01 in0.3 mm 0.01 in0.3 mm
06:20 AM 59.3°F15.2°C 57.6°F14.2°C 94% Calm Calm -- 30.11 in1019.6 mb - 0.00 in0.0 mm 0.01 in0.3 mm
06:30 AM 59.2°F15.1°C 57.8°F14.3°C 95% Calm Calm -- 30.11 in1019.6 mb - 0.00 in0.0 mm 0.01 in0.3 mm
06:40 AM 59.2°F15.1°C 57.8°F14.3°C 95% Calm Calm -- 30.11 in1019.6 mb - 0.00 in0.0 mm 0.01 in0.3 mm
06:50 AM 59.2°F15.1°C 57.8°F14.3°C 95% Calm Calm -- 30.11 in1019.6 mb - 0.00 in0.0 mm 0.01 in0.3 mm
07:00 AM 59.2°F15.1°C 57.8°F14.3°C 95% Calm Calm -- 30.12 in1020.0 mb - 0.00 in0.0 mm 0.01 in0.3 mm
07:10 AM 59.2°F15.1°C 57.8°F14.3°C 95% Calm Calm -- 30.12 in1020.0 mb - 0.00 in0.0 mm 0.01 in0.3 mm
07:20 AM 59.5°F15.3°C 58.1°F14.5°C 95% Calm Calm 1.2 mph1.9 kmh 30.13 in1020.3 mb - 0.00 in0.0 mm 0.01 in0.3 mm
07:30 AM 60.0°F15.6°C 58.6°F14.8°C 95% Calm Calm -- 30.13 in1020.3 mb - 0.00 in0.0 mm 0.01 in0.3 mm
07:40 AM 60.3°F15.7°C 58.8°F14.9°C 95% Calm Calm -- 30.13 in1020.3 mb - 0.00 in0.0 mm 0.01 in0.3 mm
07:50 AM 60.9°F16.1°C 59.5°F15.3°C 95% Calm Calm -- 30.13 in1020.3 mb - 0.00 in0.0 mm 0.01 in0.3 mm
08:00 AM 61.6°F16.4°C 60.1°F15.6°C 95% Calm Calm -- 30.13 in1020.3 mb - 0.00 in0.0 mm 0.01 in0.3 mm
08:10 AM 62.1°F16.7°C 60.4°F15.8°C 94% Calm Calm -- 30.13 in1020.3 mb - 0.00 in0.0 mm 0.01 in0.3 mm
08:20 AM 62.9°F17.2°C 60.8°F16.0°C 93% Calm Calm 3.5 mph5.6 kmh 30.13 in1020.3 mb - 0.00 in0.0 mm 0.01 in0.3 mm
08:30 AM 64.0°F17.8°C 61.6°F16.4°C 92% Calm Calm -- 30.13 in1020.3 mb - 0.00 in0.0 mm 0.01 in0.3 mm
08:40 AM 65.3°F18.5°C 62.6°F17.0°C 91% Calm Calm 1.2 mph1.9 kmh 30.13 in1020.3 mb - 0.00 in0.0 mm 0.01 in0.3 mm
08:50 AM 66.9°F19.4°C 63.2°F17.3°C 88% 1.2 mph NNE1.9 kmh NNE 3.5 mph5.6 kmh 30.13 in1020.3 mb - 0.00 in0.0 mm 0.01 in0.3 mm
09:00 AM 68.0°F20.0°C 63.7°F17.6°C 86% Calm Calm -- 30.13 in1020.3 mb - 0.00 in0.0 mm 0.01 in0.3 mm
09:10 AM 68.9°F20.5°C 63.9°F17.7°C 84% 1.2 mph NE1.9 kmh NE 3.5 mph5.6 kmh 30.13 in1020.3 mb - 0.00 in0.0 mm 0.01 in0.3 mm
10:00 AM 71.3°F21.8°C 64.1°F17.8°C 78% 3.5 mph NNW5.6 kmh NNW 6.9 mph11.1 kmh 30.13 in1020.3 mb - 0.00 in0.0 mm 0.01 in0.3 mm
10:10 AM 73.1°F22.8°C 65.1°F18.4°C 76% 2.3 mph N3.7 kmh N 11.5 mph18.5 kmh 30.13 in1020.3 mb - 0.00 in0.0 mm 0.01 in0.3 mm
10:20 AM 73.9°F23.3°C 64.3°F17.9°C 72% Calm Calm 3.5 mph5.6 kmh 30.13 in1020.3 mb - 0.00 in0.0 mm 0.01 in0.3 mm
10:30 AM 73.9°F23.3°C 63.9°F17.7°C 71% Calm Calm -- 30.13 in1020.3 mb - 0.00 in0.0 mm 0.01 in0.3 mm
10:40 AM 74.7°F23.7°C 64.7°F18.2°C 71% Calm Calm -- 30.13 in1020.3 mb - 0.00 in0.0 mm 0.01 in0.3 mm
10:50 AM 75.2°F24.0°C 64.3°F17.9°C 69% Calm Calm 3.5 mph5.6 kmh 30.13 in1020.3 mb - 0.00 in0.0 mm 0.01 in0.3 mm
11:00 AM 74.0°F23.3°C 63.6°F17.6°C 70% Calm Calm 1.2 mph1.9 kmh 30.12 in1020.0 mb - 0.00 in0.0 mm 0.01 in0.3 mm
11:10 AM 73.8°F23.2°C 63.8°F17.7°C 71% 1.2 mph N1.9 kmh N -- 30.12 in1020.0 mb - 0.00 in0.0 mm 0.01 in0.3 mm
11:20 AM 73.6°F23.1°C 63.6°F17.6°C 71% 1.2 mph NE1.9 kmh NE 4.6 mph7.4 kmh 30.12 in1020.0 mb - 0.00 in0.0 mm 0.01 in0.3 mm
11:30 AM 73.4°F23.0°C 64.2°F17.9°C 73% 1.2 mph NE1.9 kmh NE 4.6 mph7.4 kmh 30.11 in1019.6 mb - 0.00 in0.0 mm 0.01 in0.3 mm
11:40 AM 74.0°F23.3°C 63.6°F17.6°C 70% Calm Calm -- 30.11 in1019.6 mb - 0.00 in0.0 mm 0.01 in0.3 mm
12:00 PM 74.8°F23.8°C 63.5°F17.5°C 68% 3.5 mph NNE5.6 kmh NNE 10.4 mph16.7 kmh 30.11 in1019.6 mb - 0.00 in0.0 mm 0.01 in0.3 mm
12:10 PM 75.0°F23.9°C 64.6°F18.1°C 70% 2.3 mph NNE3.7 kmh NNE 6.9 mph11.1 kmh 30.11 in1019.6 mb - 0.00 in0.0 mm 0.01 in0.3 mm
12:20 PM 75.7°F24.3°C 64.3°F17.9°C 68% 1.2 mph NNE1.9 kmh NNE 3.5 mph5.6 kmh 30.11 in1019.6 mb - 0.00 in0.0 mm 0.01 in0.3 mm
12:30 PM 76.9°F24.9°C 64.2°F17.9°C 65% 3.5 mph NNE5.6 kmh NNE 9.2 mph14.8 kmh 30.10 in1019.3 mb - 0.00 in0.0 mm 0.01 in0.3 mm
12:40 PM 77.7°F25.4°C 65.4°F18.6°C 66% 3.5 mph NNE5.6 kmh NNE 8.1 mph13.0 kmh 30.10 in1019.3 mb - 0.00 in0.0 mm 0.01 in0.3 mm
12:50 PM 79.1°F26.2°C 65.4°F18.6°C 63% 2.3 mph NNE3.7 kmh NNE 9.2 mph14.8 kmh 30.09 in1019.0 mb - 0.00 in0.0 mm 0.01 in0.3 mm
01:00 PM 79.4°F26.3°C 65.2°F18.4°C 62% 4.6 mph NNE7.4 kmh NNE 8.1 mph13.0 kmh 30.09 in1019.0 mb - 0.00 in0.0 mm 0.01 in0.3 mm
01:10 PM 79.4°F26.3°C 64.3°F17.9°C 60% 3.5 mph NNE5.6 kmh NNE 8.1 mph13.0 kmh 30.09 in1019.0 mb - 0.00 in0.0 mm 0.01 in0.3 mm
01:20 PM 79.1°F26.2°C 63.5°F17.5°C 59% 2.3 mph NNE3.7 kmh NNE 6.9 mph11.1 kmh 30.08 in1018.6 mb - 0.00 in0.0 mm 0.01 in0.3 mm
01:30 PM 78.6°F25.9°C 63.5°F17.5°C 60% 4.6 mph NNE7.4 kmh NNE 4.6 mph7.4 kmh 30.08 in1018.6 mb - 0.00 in0.0 mm 0.01 in0.3 mm
01:40 PM 78.6°F25.9°C 64.0°F17.8°C 61% Calm Calm 3.5 mph5.6 kmh 30.08 in1018.6 mb - 0.00 in0.0 mm 0.01 in0.3 mm
01:50 PM 79.0°F26.1°C 63.9°F17.7°C 60% 3.5 mph NNE5.6 kmh NNE 9.2 mph14.8 kmh 30.08 in1018.6 mb - 0.00 in0.0 mm 0.01 in0.3 mm
02:00 PM 78.9°F26.1°C 63.3°F17.4°C 59% 2.3 mph NNE3.7 kmh NNE 2.3 mph3.7 kmh 30.08 in1018.6 mb - 0.00 in0.0 mm 0.01 in0.3 mm
02:10 PM 78.2°F25.7°C 62.7°F17.1°C 59% 1.2 mph NNE1.9 kmh NNE 4.6 mph7.4 kmh 30.08 in1018.6 mb - 0.00 in0.0 mm 0.01 in0.3 mm
02:20 PM 77.9°F25.5°C 62.9°F17.2°C 60% 2.3 mph NNE3.7 kmh NNE 2.3 mph3.7 kmh 30.08 in1018.6 mb - 0.00 in0.0 mm 0.01 in0.3 mm
02:30 PM 78.5°F25.8°C 64.4°F18.0°C 62% 4.6 mph NNE7.4 kmh NNE 8.1 mph13.0 kmh 30.07 in1018.3 mb - 0.00 in0.0 mm 0.01 in0.3 mm
02:40 PM 78.7°F25.9°C 63.6°F17.6°C 60% 2.3 mph NNE3.7 kmh NNE 3.5 mph5.6 kmh 30.07 in1018.3 mb - 0.00 in0.0 mm 0.01 in0.3 mm
02:50 PM 78.2°F25.7°C 63.7°F17.6°C 61% 2.3 mph NNE3.7 kmh NNE 9.2 mph14.8 kmh 30.07 in1018.3 mb - 0.00 in0.0 mm 0.01 in0.3 mm
03:00 PM 77.8°F25.4°C 63.3°F17.4°C 61% 5.8 mph NNE9.3 kmh NNE 10.4 mph16.7 kmh 30.07 in1018.3 mb - 0.00 in0.0 mm 0.01 in0.3 mm
03:10 PM 77.3°F25.2°C 62.8°F17.1°C 61% 3.5 mph NE5.6 kmh NE 4.6 mph7.4 kmh 30.06 in1017.9 mb - 0.00 in0.0 mm 0.01 in0.3 mm
03:20 PM 77.2°F25.1°C 63.2°F17.3°C 62% 3.5 mph NNE5.6 kmh NNE 4.6 mph7.4 kmh 30.06 in1017.9 mb - 0.00 in0.0 mm 0.01 in0.3 mm
03:30 PM 77.1°F25.1°C 62.6°F17.0°C 61% Calm Calm -- 30.06 in1017.9 mb - 0.00 in0.0 mm 0.01 in0.3 mm
03:40 PM 76.6°F24.8°C 61.7°F16.5°C 60% 4.6 mph NNE7.4 kmh NNE 6.9 mph11.1 kmh 30.06 in1017.9 mb - 0.00 in0.0 mm 0.01 in0.3 mm
03:50 PM 75.8°F24.3°C 62.3°F16.8°C 63% Calm Calm -- 30.06 in1017.9 mb - 0.00 in0.0 mm 0.01 in0.3 mm
04:00 PM 75.2°F24.0°C 61.7°F16.5°C 63% 4.6 mph N7.4 kmh N 10.4 mph16.7 kmh 30.06 in1017.9 mb - 0.00 in0.0 mm 0.01 in0.3 mm
04:10 PM 75.0°F23.9°C 61.1°F16.2°C 62% 1.2 mph NNE1.9 kmh NNE 2.3 mph3.7 kmh 30.06 in1017.9 mb - 0.00 in0.0 mm 0.01 in0.3 mm
04:20 PM 74.9°F23.8°C 61.9°F16.6°C 64% Calm Calm 1.2 mph1.9 kmh 30.06 in1017.9 mb - 0.00 in0.0 mm 0.01 in0.3 mm
04:30 PM 74.2°F23.4°C 61.3°F16.3°C 64% Calm Calm -- 30.06 in1017.9 mb - 0.00 in0.0 mm 0.01 in0.3 mm
04:40 PM 74.1°F23.4°C 61.1°F16.2°C 64% 1.2 mph N1.9 kmh N 3.5 mph5.6 kmh 30.06 in1017.9 mb - 0.00 in0.0 mm 0.01 in0.3 mm
04:50 PM 73.6°F23.1°C 61.1°F16.2°C 65% 4.6 mph NNE7.4 kmh NNE 6.9 mph11.1 kmh 30.06 in1017.9 mb - 0.00 in0.0 mm 0.01 in0.3 mm
05:00 PM 73.0°F22.8°C 60.5°F15.8°C 65% 2.3 mph NNE3.7 kmh NNE 3.5 mph5.6 kmh 30.07 in1018.3 mb - 0.00 in0.0 mm 0.01 in0.3 mm
05:10 PM 72.7°F22.6°C 60.7°F15.9°C 66% 2.3 mph NNE3.7 kmh NNE 1.2 mph1.9 kmh 30.07 in1018.3 mb - 0.00 in0.0 mm 0.01 in0.3 mm
05:20 PM 71.9°F22.2°C 59.9°F15.5°C 66% 2.3 mph NNE3.7 kmh NNE 6.9 mph11.1 kmh 30.07 in1018.3 mb - 0.00 in0.0 mm 0.01 in0.3 mm
05:30 PM 71.1°F21.7°C 60.4°F15.8°C 69% 3.5 mph NNE5.6 kmh NNE 5.8 mph9.3 kmh 30.07 in1018.3 mb - 0.00 in0.0 mm 0.01 in0.3 mm
05:40 PM 70.4°F21.3°C 60.1°F15.6°C 70% 3.5 mph NNE5.6 kmh NNE 6.9 mph11.1 kmh 30.07 in1018.3 mb - 0.00 in0.0 mm 0.01 in0.3 mm
05:50 PM 69.6°F20.9°C 59.8°F15.4°C 71% 1.2 mph NNE1.9 kmh NNE 4.6 mph7.4 kmh 30.07 in1018.3 mb - 0.00 in0.0 mm 0.01 in0.3 mm
06:00 PM 68.7°F20.4°C 59.7°F15.4°C 73% 1.2 mph N1.9 kmh N 3.5 mph5.6 kmh 30.08 in1018.6 mb - 0.00 in0.0 mm 0.01 in0.3 mm
06:10 PM 67.9°F19.9°C 59.6°F15.3°C 75% 3.5 mph N5.6 kmh N 6.9 mph11.1 kmh 30.08 in1018.6 mb - 0.00 in0.0 mm 0.01 in0.3 mm
06:20 PM 67.4°F19.7°C 59.5°F15.3°C 76% 1.2 mph NNE1.9 kmh NNE 3.5 mph5.6 kmh 30.09 in1019.0 mb - 0.00 in0.0 mm 0.01 in0.3 mm
06:30 PM 66.7°F19.3°C 59.6°F15.3°C 78% 2.3 mph NNE3.7 kmh NNE 4.6 mph7.4 kmh 30.08 in1018.6 mb - 0.00 in0.0 mm 0.01 in0.3 mm
06:40 PM 66.1°F18.9°C 59.4°F15.2°C 79% Calm Calm 1.2 mph1.9 kmh 30.09 in1019.0 mb - 0.00 in0.0 mm 0.01 in0.3 mm
06:50 PM 65.6°F18.7°C 59.6°F15.3°C 81% 3.5 mph NNE5.6 kmh NNE 4.6 mph7.4 kmh 30.09 in1019.0 mb - 0.00 in0.0 mm 0.01 in0.3 mm
07:00 PM 65.1°F18.4°C 59.5°F15.3°C 82% Calm Calm 2.3 mph3.7 kmh 30.09 in1019.0 mb - 0.00 in0.0 mm 0.01 in0.3 mm
07:10 PM 64.7°F18.2°C 59.4°F15.2°C 83% 1.2 mph NNE1.9 kmh NNE 4.6 mph7.4 kmh 30.09 in1019.0 mb - 0.00 in0.0 mm 0.01 in0.3 mm
07:20 PM 64.3°F17.9°C 59.4°F15.2°C 84% Calm Calm -- 30.09 in1019.0 mb - 0.00 in0.0 mm 0.01 in0.3 mm
07:30 PM 64.0°F17.8°C 59.4°F15.2°C 85% Calm Calm -- 30.09 in1019.0 mb - 0.00 in0.0 mm 0.01 in0.3 mm
07:40 PM 63.8°F17.7°C 59.5°F15.3°C 86% Calm Calm -- 30.10 in1019.3 mb - 0.00 in0.0 mm 0.01 in0.3 mm
07:50 PM 63.6°F17.6°C 59.7°F15.4°C 87% Calm Calm -- 30.09 in1019.0 mb - 0.00 in0.0 mm 0.01 in0.3 mm
08:00 PM 63.5°F17.5°C 59.8°F15.4°C 88% 3.5 mph NNE5.6 kmh NNE 4.6 mph7.4 kmh 30.10 in1019.3 mb - 0.00 in0.0 mm 0.01 in0.3 mm
08:10 PM 63.4°F17.4°C 59.8°F15.4°C 88% Calm Calm 3.5 mph5.6 kmh 30.10 in1019.3 mb - 0.00 in0.0 mm 0.01 in0.3 mm
08:20 PM 63.2°F17.3°C 59.6°F15.3°C 88% Calm Calm -- 30.11 in1019.6 mb - 0.00 in0.0 mm 0.01 in0.3 mm
08:30 PM 63.0°F17.2°C 59.7°F15.4°C 89% Calm Calm 1.2 mph1.9 kmh 30.11 in1019.6 mb - 0.00 in0.0 mm 0.01 in0.3 mm
08:40 PM 62.8°F17.1°C 59.5°F15.3°C 89% 1.2 mph NNE1.9 kmh NNE 3.5 mph5.6 kmh 30.11 in1019.6 mb - 0.00 in0.0 mm 0.01 in0.3 mm
08:50 PM 62.6°F17.0°C 59.3°F15.2°C 89% Calm Calm -- 30.11 in1019.6 mb - 0.00 in0.0 mm 0.01 in0.3 mm
09:00 PM 62.4°F16.9°C 59.4°F15.2°C 90% Calm Calm -- 30.11 in1019.6 mb - 0.00 in0.0 mm 0.01 in0.3 mm
09:10 PM 62.2°F16.8°C 59.2°F15.1°C 90% Calm Calm -- 30.11 in1019.6 mb - 0.00 in0.0 mm 0.01 in0.3 mm
09:20 PM 62.1°F16.7°C 59.1°F15.1°C 90% 1.2 mph N1.9 kmh N 3.5 mph5.6 kmh 30.11 in1019.6 mb - 0.00 in0.0 mm 0.01 in0.3 mm
09:30 PM 62.0°F16.7°C 59.0°F15.0°C 90% 2.3 mph NNE3.7 kmh NNE 3.5 mph5.6 kmh 30.11 in1019.6 mb - 0.00 in0.0 mm 0.01 in0.3 mm
09:40 PM 61.9°F16.6°C 59.2°F15.1°C 91% 2.3 mph NNE3.7 kmh NNE 4.6 mph7.4 kmh 30.11 in1019.6 mb - 0.00 in0.0 mm 0.01 in0.3 mm
09:50 PM 61.8°F16.6°C 59.1°F15.1°C 91% 2.3 mph NNE3.7 kmh NNE 6.9 mph11.1 kmh 30.11 in1019.6 mb - 0.00 in0.0 mm 0.01 in0.3 mm
10:00 PM 61.8°F16.6°C 59.1°F15.1°C 91% Calm Calm -- 30.11 in1019.6 mb - 0.00 in0.0 mm 0.01 in0.3 mm
10:10 PM 61.7°F16.5°C 59.1°F15.1°C 91% 1.2 mph NNE1.9 kmh NNE -- 30.11 in1019.6 mb - 0.00 in0.0 mm 0.01 in0.3 mm
10:20 PM 61.7°F16.5°C 59.0°F15.0°C 91% 1.2 mph NNE1.9 kmh NNE 3.5 mph5.6 kmh 30.11 in1019.6 mb - 0.00 in0.0 mm 0.01 in0.3 mm
10:30 PM 61.6°F16.4°C 58.9°F14.9°C 91% 1.2 mph NE1.9 kmh NE 2.3 mph3.7 kmh 30.11 in1019.6 mb - 0.00 in0.0 mm 0.01 in0.3 mm
10:40 PM 61.6°F16.4°C 59.2°F15.1°C 92% 1.2 mph NE1.9 kmh NE 3.5 mph5.6 kmh 30.11 in1019.6 mb - 0.00 in0.0 mm 0.01 in0.3 mm
10:50 PM 61.5°F16.4°C 59.2°F15.1°C 92% 1.2 mph NNE1.9 kmh NNE 2.3 mph3.7 kmh 30.11 in1019.6 mb - 0.00 in0.0 mm 0.01 in0.3 mm
11:00 PM 61.5°F16.4°C 59.2°F15.1°C 92% 2.3 mph NNE3.7 kmh NNE 3.5 mph5.6 kmh 30.11 in1019.6 mb - 0.00 in0.0 mm 0.01 in0.3 mm
11:10 PM 61.5°F16.4°C 59.2°F15.1°C 92% Calm Calm 1.2 mph1.9 kmh 30.11 in1019.6 mb - 0.00 in0.0 mm 0.01 in0.3 mm
11:20 PM 61.5°F16.4°C 59.2°F15.1°C 92% 2.3 mph NNE3.7 kmh NNE 3.5 mph5.6 kmh 30.11 in1019.6 mb - 0.00 in0.0 mm 0.01 in0.3 mm
11:30 PM 61.4°F16.3°C 59.4°F15.2°C 93% 2.3 mph NNE3.7 kmh NNE 3.5 mph5.6 kmh 30.11 in1019.6 mb - 0.00 in0.0 mm 0.01 in0.3 mm
11:40 PM 61.5°F16.4°C 59.4°F15.2°C 93% 2.3 mph NNE3.7 kmh NNE 3.5 mph5.6 kmh 30.11 in1019.6 mb - 0.00 in0.0 mm 0.01 in0.3 mm
11:50 PM 61.5°F16.4°C 59.4°F15.2°C 93% 2.3 mph NNE3.7 kmh NNE 3.5 mph5.6 kmh 30.11 in1019.6 mb - 0.00 in0.0 mm 0.01 in0.3 mm